sensor_id;sensor_type;location;lat;lon;timestamp;temperature;humidity
50690;DHT22;54375;48.298;11.238;2023-03-14T00:01:27;10.00;92.20
50690;DHT22;54375;48.298;11.238;2023-03-14T00:16:29;9.90;92.00
50690;DHT22;54375;48.298;11.238;2023-03-14T00:31:31;9.80;91.70
50690;DHT22;54375;48.298;11.238;2023-03-14T00:46:33;9.80;92.00
50690;DHT22;54375;48.298;11.238;2023-03-14T01:01:36;9.60;92.40
50690;DHT22;54375;48.298;11.238;2023-03-14T01:16:38;9.50;91.70
50690;DHT22;54375;48.298;11.238;2023-03-14T01:31:41;9.40;92.40
50690;DHT22;54375;48.298;11.238;2023-03-14T01:46:43;9.00;93.30
50690;DHT22;54375;48.298;11.238;2023-03-14T02:01:47;8.60;94.40
50690;DHT22;54375;48.298;11.238;2023-03-14T02:16:51;8.40;95.40
50690;DHT22;54375;48.298;11.238;2023-03-14T02:31:54;8.40;95.20
50690;DHT22;54375;48.298;11.238;2023-03-14T02:46:57;8.30;94.70
50690;DHT22;54375;48.298;11.238;2023-03-14T03:02:00;8.30;94.10
50690;DHT22;54375;48.298;11.238;2023-03-14T03:17:03;8.20;93.90
50690;DHT22;54375;48.298;11.238;2023-03-14T03:32:06;8.20;93.60
50690;DHT22;54375;48.298;11.238;2023-03-14T03:47:08;8.20;93.20
50690;DHT22;54375;48.298;11.238;2023-03-14T04:02:10;8.10;92.20
50690;DHT22;54375;48.298;11.238;2023-03-14T04:17:12;8.00;91.70
50690;DHT22;54375;48.298;11.238;2023-03-14T04:32:15;7.90;91.50
50690;DHT22;54375;48.298;11.238;2023-03-14T04:47:17;7.80;91.50
50690;DHT22;54375;48.298;11.238;2023-03-14T05:02:19;7.70;91.70
50690;DHT22;54375;48.298;11.238;2023-03-14T05:17:22;7.60;91.40
50690;DHT22;54375;48.298;11.238;2023-03-14T05:32:24;7.60;91.20
50690;DHT22;54375;48.298;11.238;2023-03-14T05:47:26;7.60;91.00
50690;DHT22;54375;48.298;11.238;2023-03-14T06:02:28;7.60;90.50
50690;DHT22;54375;48.298;11.238;2023-03-14T06:17:31;7.60;90.20
50690;DHT22;54375;48.298;11.238;2023-03-14T06:32:33;7.70;90.10
50690;DHT22;54375;48.298;11.238;2023-03-14T06:47:35;7.70;90.20
50690;DHT22;54375;48.298;11.238;2023-03-14T07:02:38;7.90;90.20
50690;DHT22;54375;48.298;11.238;2023-03-14T07:17:40;7.90;90.20
50690;DHT22;54375;48.298;11.238;2023-03-14T07:32:43;8.00;90.30
50690;DHT22;54375;48.298;11.238;2023-03-14T07:47:45;8.10;90.00
50690;DHT22;54375;48.298;11.238;2023-03-14T08:02:47;8.30;88.30
50690;DHT22;54375;48.298;11.238;2023-03-14T08:17:50;8.60;86.30
50690;DHT22;54375;48.298;11.238;2023-03-14T08:32:52;9.00;84.50
50690;DHT22;54375;48.298;11.238;2023-03-14T08:47:54;9.30;81.90
50690;DHT22;54375;48.298;11.238;2023-03-14T09:02:57;9.60;81.40
50690;DHT22;54375;48.298;11.238;2023-03-14T09:17:59;9.90;78.40
50690;DHT22;54375;48.298;11.238;2023-03-14T09:33:01;10.80;75.40
50690;DHT22;54375;48.298;11.238;2023-03-14T09:48:08;11.40;72.90
50690;DHT22;54375;48.298;11.238;2023-03-14T10:03:24;11.40;72.20
50690;DHT22;54375;48.298;11.238;2023-03-14T10:18:29;12.30;69.30
50690;DHT22;54375;48.298;11.238;2023-03-14T10:33:33;12.40;67.60
50690;DHT22;54375;48.298;11.238;2023-03-14T10:48:37;12.30;66.80
50690;DHT22;54375;48.298;11.238;2023-03-14T11:03:43;12.20;67.40
50690;DHT22;54375;48.298;11.238;2023-03-14T11:19:00;13.30;62.30
50690;DHT22;54375;48.298;11.238;2023-03-14T11:34:13;13.50;60.10
50690;DHT22;54375;48.298;11.238;2023-03-14T11:49:30;12.80;63.20
50690;DHT22;54375;48.298;11.238;2023-03-14T12:04:48;12.80;62.00
50690;DHT22;54375;48.298;11.238;2023-03-14T12:20:11;12.40;64.50
50690;DHT22;54375;48.298;11.238;2023-03-14T12:35:35;12.30;63.20
50690;DHT22;54375;48.298;11.238;2023-03-14T12:50:42;11.80;65.40
50690;DHT22;54375;48.298;11.238;2023-03-14T13:05:54;11.80;67.20
50690;DHT22;54375;48.298;11.238;2023-03-14T13:20:59;11.80;68.70
50690;DHT22;54375;48.298;11.238;2023-03-14T13:36:05;10.80;73.50
50690;DHT22;54375;48.298;11.238;2023-03-14T13:51:11;10.30;73.60
50690;DHT22;54375;48.298;11.238;2023-03-14T14:06:26;9.60;77.70
50690;DHT22;54375;48.298;11.238;2023-03-14T14:21:29;8.70;83.90
50690;DHT22;54375;48.298;11.238;2023-03-14T14:36:37;7.90;89.20
50690;DHT22;54375;48.298;11.238;2023-03-14T14:51:43;7.80;88.20
50690;DHT22;54375;48.298;11.238;2023-03-14T15:06:47;7.70;90.30
50690;DHT22;54375;48.298;11.238;2023-03-14T15:21:51;7.50;90.40
50690;DHT22;54375;48.298;11.238;2023-03-14T15:36:53;7.10;85.50
50690;DHT22;54375;48.298;11.238;2023-03-14T15:51:56;7.70;83.90
50690;DHT22;54375;48.298;11.238;2023-03-14T16:06:58;8.30;77.80
50690;DHT22;54375;48.298;11.238;2023-03-14T16:22:00;7.80;72.10
50690;DHT22;54375;48.298;11.238;2023-03-14T16:37:02;7.50;77.20
50690;DHT22;54375;48.298;11.238;2023-03-14T16:52:06;7.20;73.20
50690;DHT22;54375;48.298;11.238;2023-03-14T17:07:08;6.90;71.60
50690;DHT22;54375;48.298;11.238;2023-03-14T17:22:11;6.60;71.60
50690;DHT22;54375;48.298;11.238;2023-03-14T17:37:13;6.30;68.20
50690;DHT22;54375;48.298;11.238;2023-03-14T17:52:17;6.00;66.20
50690;DHT22;54375;48.298;11.238;2023-03-14T18:07:19;5.80;66.60
50690;DHT22;54375;48.298;11.238;2023-03-14T18:22:21;5.50;68.90
50690;DHT22;54375;48.298;11.238;2023-03-14T18:37:24;5.40;69.20
50690;DHT22;54375;48.298;11.238;2023-03-14T18:52:26;5.30;70.70
50690;DHT22;54375;48.298;11.238;2023-03-14T19:07:28;5.30;71.40
50690;DHT22;54375;48.298;11.238;2023-03-14T19:22:30;5.20;72.20
50690;DHT22;54375;48.298;11.238;2023-03-14T19:37:33;5.00;73.30
50690;DHT22;54375;48.298;11.238;2023-03-14T19:52:35;5.10;73.90
50690;DHT22;54375;48.298;11.238;2023-03-14T20:07:37;5.20;76.30
50690;DHT22;54375;48.298;11.238;2023-03-14T20:22:48;5.30;76.00
50690;DHT22;54375;48.298;11.238;2023-03-14T20:37:52;5.10;83.40
50690;DHT22;54375;48.298;11.238;2023-03-14T20:52:54;4.40;89.40
50690;DHT22;54375;48.298;11.238;2023-03-14T21:07:57;4.20;90.30
50690;DHT22;54375;48.298;11.238;2023-03-14T21:23:00;4.20;89.60
50690;DHT22;54375;48.298;11.238;2023-03-14T21:38:02;3.90;88.00
50690;DHT22;54375;48.298;11.238;2023-03-14T21:53:05;3.70;88.50
50690;DHT22;54375;48.298;11.238;2023-03-14T22:08:08;3.50;89.30
50690;DHT22;54375;48.298;11.238;2023-03-14T22:23:11;3.40;89.60
50690;DHT22;54375;48.298;11.238;2023-03-14T22:38:14;3.20;89.60
50690;DHT22;54375;48.298;11.238;2023-03-14T22:53:16;3.10;89.70
50690;DHT22;54375;48.298;11.238;2023-03-14T23:08:19;3.00;89.60
50690;DHT22;54375;48.298;11.238;2023-03-14T23:23:21;2.90;90.10
50690;DHT22;54375;48.298;11.238;2023-03-14T23:38:24;2.90;90.60
50690;DHT22;54375;48.298;11.238;2023-03-14T23:53:28;3.10;91.10
